createdAt,value
2022-09-02T00:01:38.036Z,1.50
2022-09-02T00:04:13.800Z,1.60
2022-09-02T00:06:42.244Z,1.50
2022-09-02T00:09:11.251Z,1.60
2022-09-02T00:11:40.634Z,1.67
2022-09-02T00:14:11.191Z,1.40
2022-09-02T00:16:38.893Z,1.60
2022-09-02T00:19:05.988Z,1.40
2022-09-02T00:21:34.657Z,1.50
2022-09-02T00:24:03.785Z,1.70
2022-09-02T00:26:30.617Z,1.60
2022-09-02T00:28:57.370Z,1.50
2022-09-02T00:31:25.894Z,1.50
2022-09-02T00:33:53.556Z,1.50
2022-09-02T00:36:21.155Z,1.60
2022-09-02T00:38:47.941Z,1.53
2022-09-02T00:41:15.282Z,1.33
2022-09-02T00:43:46.945Z,1.60
2022-09-02T00:46:16.807Z,1.30
2022-09-02T00:49:10.834Z,1.40
2022-09-02T00:51:51.615Z,1.50
2022-09-02T00:54:20.634Z,1.40
2022-09-02T00:56:49.830Z,1.40
2022-09-02T00:59:48.829Z,1.70
2022-09-02T01:02:15.715Z,1.63
2022-09-02T01:04:43.377Z,1.50
2022-09-02T01:07:09.994Z,1.30
2022-09-02T01:09:38.033Z,1.50
2022-09-02T01:12:05.589Z,1.50
2022-09-02T01:14:32.288Z,1.40
2022-09-02T01:17:01.190Z,1.57
2022-09-02T01:19:38.832Z,1.40
2022-09-02T01:22:22.608Z,1.40
2022-09-02T01:24:49.456Z,1.37
2022-09-02T01:27:18.431Z,1.60
2022-09-02T01:29:46.415Z,1.50
2022-09-02T01:32:13.059Z,1.77
2022-09-02T01:34:39.695Z,1.53
2022-09-02T01:37:07.160Z,1.70
2022-09-02T01:39:33.823Z,1.70
2022-09-02T01:42:01.241Z,1.60
2022-09-02T01:44:27.973Z,1.60
2022-09-02T01:46:55.443Z,1.40
2022-09-02T01:49:22.600Z,1.30
2022-09-02T01:51:49.911Z,1.70
2022-09-02T01:54:16.499Z,1.50
2022-09-02T01:56:43.232Z,1.70
2022-09-02T01:59:11.812Z,1.60
2022-09-02T02:01:38.537Z,1.67
2022-09-02T02:04:05.253Z,2.00
2022-09-02T02:06:31.825Z,1.60
2022-09-02T02:08:58.372Z,1.60
2022-09-02T02:11:25.462Z,1.80
2022-09-02T02:13:52.144Z,1.40
2022-09-02T02:16:18.740Z,1.80
2022-09-02T02:18:45.296Z,1.70
2022-09-02T02:21:11.902Z,1.60
2022-09-02T02:23:38.701Z,1.60
2022-09-02T02:26:05.404Z,1.60
2022-09-02T02:28:31.924Z,1.70
2022-09-02T02:31:00.040Z,1.57
2022-09-02T02:33:36.274Z,1.70
2022-09-02T02:36:04.846Z,1.63
2022-09-02T02:38:36.467Z,1.63
2022-09-02T02:41:06.375Z,1.60
2022-09-02T02:43:34.859Z,1.70
2022-09-02T02:46:01.763Z,1.50
2022-09-02T02:48:28.645Z,1.70
2022-09-02T02:50:55.805Z,1.90
2022-09-02T02:53:22.610Z,1.90
2022-09-02T02:55:50.027Z,1.50
2022-09-02T02:58:18.323Z,1.60
2022-09-02T03:00:46.296Z,1.53
2022-09-02T03:03:13.300Z,1.60
2022-09-02T03:05:40.230Z,1.70
2022-09-02T03:08:09.637Z,1.50
2022-09-02T03:10:38.707Z,1.67
2022-09-02T03:13:05.960Z,1.90
2022-09-02T03:15:33.413Z,3.73
2022-09-02T03:18:00.157Z,5.87
2022-09-02T03:20:26.834Z,2.43
2022-09-02T03:22:56.545Z,2.60
2022-09-02T03:25:24.229Z,1.50
2022-09-02T03:27:52.208Z,1.70
2022-09-02T03:30:23.367Z,1.80
2022-09-02T03:32:50.835Z,1.80
2022-09-02T03:35:20.347Z,1.80
2022-09-02T03:37:48.475Z,1.90
2022-09-02T03:40:19.257Z,1.80
2022-09-02T03:42:47.377Z,1.87
2022-09-02T03:45:15.515Z,1.83
2022-09-02T03:47:50.959Z,1.53
2022-09-02T03:50:20.239Z,1.80
2022-09-02T03:52:47.266Z,1.70
2022-09-02T03:55:14.316Z,2.10
2022-09-02T03:57:40.969Z,1.90
2022-09-02T04:00:09.810Z,2.03
2022-09-02T04:02:36.473Z,2.40
2022-09-02T04:05:03.524Z,1.83
2022-09-02T04:07:30.065Z,1.80
2022-09-02T04:09:56.617Z,1.80
2022-09-02T04:12:23.545Z,2.00
2022-09-02T04:14:58.781Z,2.10
2022-09-02T04:17:25.390Z,2.57
2022-09-02T04:19:54.807Z,2.57
2022-09-02T04:22:21.525Z,2.23
2022-09-02T04:24:48.107Z,2.23
2022-09-02T04:27:14.669Z,1.97
2022-09-02T04:29:41.270Z,2.00
2022-09-02T04:32:07.831Z,1.70
2022-09-02T04:34:34.547Z,2.50
2022-09-02T04:37:01.098Z,2.10
2022-09-02T04:39:27.756Z,1.90
2022-09-02T04:41:54.488Z,2.00
2022-09-02T04:44:21.340Z,1.90
2022-09-02T04:46:50.301Z,2.00
2022-09-02T04:49:17.697Z,1.80
2022-09-02T04:51:44.381Z,2.10
2022-09-02T04:54:11.011Z,2.10
2022-09-02T04:56:38.529Z,2.23
2022-09-02T04:59:05.183Z,1.77
2022-09-02T05:01:34.288Z,1.93
2022-09-02T05:04:03.019Z,1.93
2022-09-02T05:06:29.953Z,2.20
2022-09-02T05:08:59.316Z,2.30
2022-09-02T05:11:28.563Z,2.33
2022-09-02T05:13:57.198Z,2.03
2022-09-02T05:16:30.941Z,2.20
2022-09-02T05:18:58.841Z,2.20
2022-09-02T05:21:26.164Z,1.97
2022-09-02T05:23:54.508Z,2.03
2022-09-02T05:26:22.742Z,2.30
2022-09-02T05:28:49.795Z,2.50
2022-09-02T05:31:18.392Z,2.33
2022-09-02T05:33:45.571Z,2.17
2022-09-02T05:36:15.953Z,2.50
2022-09-02T05:38:44.206Z,2.30
2022-09-02T05:41:19.797Z,2.90
2022-09-02T05:43:47.019Z,3.20
2022-09-02T05:46:17.854Z,2.97
2022-09-02T05:49:04.349Z,2.47
2022-09-02T05:51:32.662Z,2.80
2022-09-02T05:54:01.201Z,2.37
2022-09-02T05:56:27.889Z,2.33
2022-09-02T05:58:59.004Z,2.17
2022-09-02T06:01:28.277Z,2.30
2022-09-02T06:03:56.164Z,2.60
2022-09-02T06:06:23.902Z,2.50
2022-09-02T06:08:51.187Z,2.27
2022-09-02T06:11:18.424Z,1.93
2022-09-02T06:13:46.718Z,2.33
2022-09-02T06:16:16.209Z,2.00
2022-09-02T06:18:43.435Z,2.20
2022-09-02T06:21:10.050Z,1.73
2022-09-02T06:23:39.151Z,2.00
2022-09-02T06:26:08.832Z,2.23
2022-09-02T06:28:36.291Z,2.00
2022-09-02T06:31:10.933Z,2.20
2022-09-02T06:33:38.225Z,2.20
2022-09-02T06:36:10.233Z,2.20
2022-09-02T06:38:45.652Z,1.83
2022-09-02T06:41:16.044Z,2.00
2022-09-02T06:43:43.118Z,2.00
2022-09-02T06:46:18.931Z,2.07
2022-09-02T06:48:45.893Z,1.83
2022-09-02T06:51:20.442Z,2.40
2022-09-02T06:53:47.133Z,1.57
2022-09-02T06:56:14.190Z,1.87
2022-09-02T06:58:40.955Z,1.87
2022-09-02T07:01:11.996Z,1.87
2022-09-02T07:04:09.426Z,1.70
2022-09-02T07:06:39.733Z,1.77
2022-09-02T07:09:10.513Z,1.67
2022-09-02T07:11:40.944Z,1.50
2022-09-02T07:14:08.284Z,1.50
2022-09-02T07:16:42.810Z,1.53
2022-09-02T07:19:15.082Z,1.40
2022-09-02T07:21:47.532Z,1.67
2022-09-02T07:24:15.558Z,1.40
2022-09-02T07:26:44.687Z,1.40
2022-09-02T07:29:14.855Z,1.30
2022-09-02T07:31:48.932Z,1.27
2022-09-02T07:34:22.034Z,1.40
2022-09-02T07:36:53.485Z,1.70
2022-09-02T07:39:20.534Z,1.10
2022-09-02T07:41:50.366Z,1.30
2022-09-02T07:44:18.350Z,1.20
2022-09-02T07:46:46.877Z,1.00
2022-09-02T07:49:15.699Z,1.27
2022-09-02T07:51:46.372Z,1.13
2022-09-02T07:54:13.350Z,0.90
2022-09-02T07:56:40.829Z,1.07
2022-09-02T07:59:07.498Z,1.10
2022-09-02T08:01:34.571Z,1.20
2022-09-02T08:04:04.106Z,0.93
2022-09-02T08:06:34.731Z,1.10
2022-09-02T08:09:04.613Z,0.97
2022-09-02T08:11:32.802Z,0.90
2022-09-02T08:14:00.648Z,0.90
2022-09-02T08:16:27.472Z,0.87
2022-09-02T08:18:54.547Z,0.77
2022-09-02T08:21:21.830Z,0.80
2022-09-02T08:23:50.589Z,1.07
2022-09-02T08:26:18.524Z,0.83
2022-09-02T08:28:46.243Z,0.97
2022-09-02T08:31:13.024Z,0.90
2022-09-02T08:33:39.684Z,0.90
2022-09-02T08:36:09.396Z,0.80
2022-09-02T08:38:36.865Z,0.83
2022-09-02T08:41:13.798Z,1.33
2022-09-02T08:43:43.352Z,1.10
2022-09-02T08:46:15.014Z,1.10
2022-09-02T08:48:55.250Z,1.00
2022-09-02T08:51:53.829Z,0.90
2022-09-02T08:54:28.351Z,0.80
2022-09-02T08:56:56.112Z,1.00
2022-09-02T08:59:28.693Z,1.00
2022-09-02T09:02:21.712Z,0.80
2022-09-02T09:05:25.552Z,0.90
2022-09-02T09:08:22.255Z,1.00
2022-09-02T09:11:01.816Z,1.07
2022-09-02T09:13:53.120Z,1.03
2022-09-02T09:16:35.007Z,1.00
2022-09-02T09:19:16.774Z,0.97
2022-09-02T09:21:44.448Z,0.87
2022-09-02T09:24:36.884Z,0.93
2022-09-02T09:27:09.453Z,0.60
2022-09-02T09:29:36.453Z,0.90
2022-09-02T09:32:04.522Z,0.80
2022-09-02T09:34:53.072Z,0.80
2022-09-02T09:37:35.748Z,0.97
2022-09-02T09:40:21.712Z,1.13
2022-09-02T09:42:50.034Z,1.00
2022-09-02T09:45:22.073Z,0.90
2022-09-02T09:48:19.014Z,0.80
2022-09-02T09:50:47.758Z,0.73
2022-09-02T09:53:20.024Z,0.90
2022-09-02T09:55:54.259Z,1.00
2022-09-02T09:58:30.961Z,0.83
2022-09-02T10:01:00.882Z,0.90
2022-09-02T10:03:32.837Z,1.10
2022-09-02T10:06:18.434Z,0.83
2022-09-02T10:09:06.288Z,1.07
2022-09-02T10:11:37.820Z,0.97
2022-09-02T10:14:10.070Z,0.80
2022-09-02T10:16:53.722Z,0.93
2022-09-02T10:19:34.314Z,0.63
2022-09-02T10:22:06.186Z,1.00
2022-09-02T10:24:32.734Z,0.90
2022-09-02T10:27:00.540Z,1.07
2022-09-02T10:29:52.918Z,0.90
2022-09-02T10:32:39.712Z,0.83
2022-09-02T10:35:12.429Z,0.80
2022-09-02T10:38:33.276Z,1.10
2022-09-02T10:41:16.638Z,1.10
2022-09-02T10:44:00.050Z,0.63
2022-09-02T10:46:35.575Z,0.83
2022-09-02T10:49:05.008Z,0.80
2022-09-02T10:52:05.563Z,1.10
2022-09-02T10:54:48.172Z,0.83
2022-09-02T10:57:20.144Z,0.80
2022-09-02T11:00:27.410Z,1.00
2022-09-02T11:02:56.843Z,0.97
2022-09-02T11:05:42.305Z,1.10
2022-09-02T11:08:09.911Z,0.90
2022-09-02T11:10:41.497Z,0.90
2022-09-02T11:13:31.529Z,1.00
2022-09-02T11:16:15.330Z,0.97
2022-09-02T11:18:50.630Z,1.03
2022-09-02T11:21:38.912Z,0.80
2022-09-02T11:24:13.534Z,0.60
2022-09-02T11:26:54.441Z,1.10
2022-09-02T11:29:26.904Z,0.80
2022-09-02T11:32:35.066Z,0.80
2022-09-02T11:35:07.907Z,1.17
2022-09-02T11:37:42.980Z,1.00
2022-09-02T11:40:33.779Z,1.17
2022-09-02T11:43:04.005Z,0.90
2022-09-02T11:45:44.206Z,1.03
2022-09-02T11:48:50.837Z,1.00
2022-09-02T11:51:47.240Z,0.97
2022-09-02T11:54:23.374Z,1.13
2022-09-02T11:57:16.202Z,0.70
2022-09-02T11:59:51.947Z,0.80
2022-09-02T12:02:56.469Z,0.67
2022-09-02T12:05:30.309Z,1.03
2022-09-02T12:08:48.970Z,0.97
2022-09-02T12:11:59.846Z,0.70
2022-09-02T12:14:31.761Z,0.90
2022-09-02T12:17:03.757Z,1.10
2022-09-02T12:19:41.244Z,1.20
2022-09-02T12:22:17.178Z,0.83
2022-09-02T12:25:05.017Z,0.90
2022-09-02T12:27:36.961Z,0.73
2022-09-02T12:30:15.712Z,0.70
2022-09-02T12:32:46.262Z,0.70
2022-09-02T12:35:34.907Z,0.90
2022-09-02T12:38:12.614Z,0.80
2022-09-02T12:41:22.107Z,0.77
2022-09-02T12:44:02.559Z,0.80
2022-09-02T12:46:51.214Z,0.90
2022-09-02T12:49:43.002Z,0.87
2022-09-02T12:52:12.199Z,0.70
2022-09-02T12:54:38.668Z,0.77
2022-09-02T12:57:09.847Z,0.77
2022-09-02T12:59:40.043Z,0.90
2022-09-02T13:02:30.172Z,0.67
2022-09-02T13:05:10.577Z,0.57
2022-09-02T13:07:43.678Z,0.60
2022-09-02T13:10:52.753Z,0.60
2022-09-02T13:13:47.307Z,0.90
2022-09-02T13:16:38.953Z,0.40
2022-09-02T13:19:46.441Z,0.63
2022-09-02T13:22:46.288Z,0.60
2022-09-02T13:25:25.100Z,0.47
2022-09-02T13:28:38.423Z,0.80
2022-09-02T13:31:25.756Z,0.73
2022-09-02T13:34:05.505Z,0.80
2022-09-02T13:36:45.762Z,0.87
2022-09-02T13:39:28.634Z,0.67
2022-09-02T13:41:55.337Z,0.80
2022-09-02T13:44:26.571Z,0.60
2022-09-02T13:46:55.246Z,0.87
2022-09-02T13:49:37.661Z,0.70
2022-09-02T13:52:07.280Z,0.70
2022-09-02T13:54:37.230Z,0.90
2022-09-02T13:57:07.079Z,0.90
2022-09-02T13:59:33.555Z,0.80
2022-09-02T14:02:00.221Z,0.70
2022-09-02T14:04:27.755Z,0.90
2022-09-02T14:06:54.668Z,0.70
2022-09-02T14:09:29.743Z,0.70
2022-09-02T14:11:58.957Z,1.00
2022-09-02T14:14:26.318Z,0.83
2022-09-02T14:16:53.076Z,0.83
2022-09-02T14:19:22.394Z,0.80
2022-09-02T14:21:56.030Z,1.10
2022-09-02T14:24:29.024Z,0.67
2022-09-02T14:27:00.557Z,0.70
2022-09-02T14:29:32.057Z,1.00
2022-09-02T14:32:15.629Z,0.60
2022-09-02T14:34:47.293Z,0.70
2022-09-02T14:37:18.995Z,0.70
2022-09-02T14:40:12.672Z,0.70
2022-09-02T14:42:45.545Z,0.70
2022-09-02T14:45:13.086Z,0.83
2022-09-02T14:47:40.928Z,0.70
2022-09-02T14:50:15.362Z,0.80
2022-09-02T14:52:48.144Z,0.80
2022-09-02T14:55:52.402Z,1.00
2022-09-02T14:58:20.988Z,1.30
2022-09-02T15:00:56.124Z,1.03
2022-09-02T15:03:24.049Z,0.77
2022-09-02T15:05:52.414Z,1.07
2022-09-02T15:08:19.593Z,0.83
2022-09-02T15:10:46.636Z,0.70
2022-09-02T15:13:18.062Z,0.90
2022-09-02T15:15:44.680Z,1.00
2022-09-02T15:18:12.595Z,0.80
2022-09-02T15:20:39.159Z,0.63
2022-09-02T15:23:05.706Z,0.90
2022-09-02T15:25:34.221Z,0.73
2022-09-02T15:28:01.103Z,0.70
2022-09-02T15:30:28.040Z,0.83
2022-09-02T15:32:54.573Z,0.70
2022-09-02T15:35:21.277Z,0.90
2022-09-02T15:37:50.262Z,0.80
2022-09-02T15:40:17.008Z,0.93
2022-09-02T15:42:43.548Z,0.90
2022-09-02T15:45:10.474Z,0.90
2022-09-02T15:47:38.274Z,0.97
2022-09-02T15:50:06.309Z,1.03
2022-09-02T15:52:35.057Z,1.20
2022-09-02T15:55:02.069Z,1.00
2022-09-02T15:57:29.914Z,1.00
2022-09-02T15:59:56.634Z,1.00
2022-09-02T16:02:23.513Z,1.00
2022-09-02T16:04:50.105Z,0.87
2022-09-02T16:07:17.401Z,1.07
2022-09-02T16:09:44.095Z,0.80
2022-09-02T16:12:11.193Z,0.90
2022-09-02T16:14:37.737Z,0.80
2022-09-02T16:17:04.584Z,1.13
2022-09-02T16:19:31.293Z,1.10
2022-09-02T16:21:58.646Z,1.00
2022-09-02T16:24:25.395Z,1.10
2022-09-02T16:26:52.129Z,1.00
2022-09-02T16:29:19.818Z,0.93
2022-09-02T16:32:13.940Z,0.97
2022-09-02T16:34:38.392Z,0.80
2022-09-02T16:37:05.963Z,1.10
2022-09-02T16:39:33.296Z,1.03
2022-09-02T16:42:04.333Z,1.00
2022-09-02T16:44:34.393Z,1.03
2022-09-02T16:47:01.256Z,0.80
2022-09-02T16:49:28.097Z,0.90
2022-09-02T16:51:58.079Z,1.20
2022-09-02T16:54:30.973Z,1.07
2022-09-02T16:57:00.283Z,0.97
2022-09-02T16:59:27.403Z,0.80
2022-09-02T17:01:54.261Z,1.17
2022-09-02T17:04:21.392Z,0.70
2022-09-02T17:06:48.450Z,0.77
2022-09-02T17:09:16.707Z,1.10
2022-09-02T17:11:45.405Z,1.00
2022-09-02T17:14:15.242Z,1.00
2022-09-02T17:16:45.636Z,0.80
2022-09-02T17:19:21.327Z,1.00
2022-09-02T17:21:51.164Z,1.13
2022-09-02T17:24:18.882Z,0.90
2022-09-02T17:26:50.657Z,1.00
2022-09-02T17:32:09.675Z,1.60
2022-09-02T17:34:36.927Z,1.33
2022-09-02T17:37:04.653Z,0.90
2022-09-02T17:39:31.390Z,0.90
2022-09-02T17:42:02.131Z,1.00
2022-09-02T17:44:40.714Z,0.90
2022-09-02T17:47:11.173Z,0.83
2022-09-02T17:49:41.267Z,1.10
2022-09-02T17:52:08.580Z,1.10
2022-09-02T17:54:37.332Z,1.17
2022-09-02T17:57:43.152Z,1.20
2022-09-02T18:00:19.281Z,1.10
2022-09-02T18:03:13.424Z,1.10
2022-09-02T18:06:09.130Z,1.20
2022-09-02T18:08:48.945Z,1.30
2022-09-02T18:11:15.890Z,1.20
2022-09-02T18:14:07.455Z,1.20
2022-09-02T18:16:51.348Z,1.40
2022-09-02T18:19:44.056Z,1.80
2022-09-02T18:22:44.453Z,1.20
2022-09-02T18:25:17.097Z,1.27
2022-09-02T18:28:06.611Z,1.33
2022-09-02T18:30:58.322Z,1.10
2022-09-02T18:33:34.607Z,1.40
2022-09-02T18:36:19.505Z,1.13
2022-09-02T18:39:18.110Z,1.10
2022-09-02T18:42:06.181Z,1.30
2022-09-02T18:44:52.024Z,1.03
2022-09-02T18:47:28.980Z,1.13
2022-09-02T18:49:58.559Z,1.10
2022-09-02T18:52:28.252Z,1.17
2022-09-02T18:55:03.125Z,1.07
2022-09-02T18:57:37.049Z,1.30
2022-09-02T19:00:11.317Z,1.60
2022-09-02T19:02:49.196Z,1.10
2022-09-02T19:05:21.039Z,1.10
2022-09-02T19:08:14.923Z,1.00
2022-09-02T19:10:41.507Z,1.17
2022-09-02T19:13:08.380Z,1.03
2022-09-02T19:15:36.801Z,1.30
2022-09-02T19:18:03.403Z,1.10
2022-09-02T19:20:31.986Z,0.93
2022-09-02T19:22:59.356Z,1.03
2022-09-02T19:25:29.277Z,1.00
2022-09-02T19:27:57.915Z,1.20
2022-09-02T19:30:25.309Z,1.40
2022-09-02T19:32:58.390Z,1.17
2022-09-02T19:35:28.125Z,1.27
2022-09-02T19:37:55.352Z,1.10
2022-09-02T19:40:26.720Z,1.30
2022-09-02T19:42:54.978Z,1.20
2022-09-02T19:45:22.961Z,1.17
2022-09-02T19:48:08.119Z,1.20
2022-09-02T19:50:44.040Z,1.20
2022-09-02T19:53:22.417Z,1.40
2022-09-02T19:55:51.927Z,1.33
2022-09-02T19:58:19.187Z,1.20
2022-09-02T20:00:47.527Z,1.13
2022-09-02T20:03:15.149Z,1.10
2022-09-02T20:05:42.507Z,1.30
2022-09-02T20:08:09.492Z,1.00
2022-09-02T20:10:37.389Z,1.10
2022-09-02T20:13:04.733Z,1.07
2022-09-02T20:15:31.677Z,0.87
2022-09-02T20:18:09.311Z,1.20
2022-09-02T20:20:36.046Z,1.27
2022-09-02T20:23:02.904Z,1.40
2022-09-02T20:25:56.168Z,1.20
2022-09-02T20:28:50.642Z,1.00
2022-09-02T20:31:56.470Z,1.20
2022-09-02T20:34:50.127Z,1.10
2022-09-02T20:37:27.068Z,1.30
2022-09-02T20:40:18.953Z,1.40
2022-09-02T20:43:04.416Z,0.90
2022-09-02T20:45:56.285Z,1.20
2022-09-02T20:48:44.242Z,1.07
2022-09-02T20:51:30.300Z,1.10
2022-09-02T20:54:07.543Z,1.20
2022-09-02T20:56:40.243Z,1.40
2022-09-02T20:59:26.863Z,1.30
2022-09-02T21:01:57.377Z,1.13
2022-09-02T21:04:40.139Z,1.20
2022-09-02T21:07:13.549Z,1.40
2022-09-02T21:09:59.994Z,1.30
2022-09-02T21:12:37.251Z,1.30
2022-09-02T21:15:38.732Z,0.83
2022-09-02T21:18:47.128Z,1.20
2022-09-02T21:21:23.610Z,0.93
2022-09-02T21:23:56.204Z,1.30
2022-09-02T21:26:36.325Z,1.27
2022-09-02T21:29:25.064Z,1.07
2022-09-02T21:32:06.406Z,1.20
2022-09-02T21:34:45.915Z,1.20
2022-09-02T21:37:13.475Z,1.20
2022-09-02T21:39:45.982Z,0.90
2022-09-02T21:42:30.917Z,1.27
2022-09-02T21:44:57.456Z,0.97
2022-09-02T21:47:28.334Z,1.07
2022-09-02T21:50:16.561Z,1.27
2022-09-02T21:53:11.449Z,1.20
2022-09-02T21:56:08.898Z,0.80
2022-09-02T21:59:14.733Z,1.10
2022-09-02T22:02:10.713Z,1.10
2022-09-02T22:04:40.215Z,1.10
2022-09-02T22:07:33.556Z,1.03
2022-09-02T22:10:07.906Z,1.10
2022-09-02T22:12:39.826Z,1.20
2022-09-02T22:15:23.744Z,1.07
2022-09-02T22:17:55.537Z,1.10
2022-09-02T22:20:32.030Z,1.17
2022-09-02T22:23:25.184Z,0.93
2022-09-02T22:25:55.430Z,1.10
2022-09-02T22:28:31.861Z,1.10
2022-09-02T22:31:07.788Z,1.03
2022-09-02T22:33:42.797Z,1.40
2022-09-02T22:36:22.635Z,1.10
2022-09-02T22:38:49.808Z,1.10
2022-09-02T22:41:35.202Z,1.40
2022-09-02T22:44:05.393Z,1.30
2022-09-02T22:46:53.639Z,1.23
2022-09-02T22:49:40.520Z,1.00
2022-09-02T22:52:46.411Z,1.10
2022-09-02T22:55:30.661Z,1.00
2022-09-02T22:58:22.060Z,1.13
2022-09-02T23:01:00.469Z,1.00
2022-09-02T23:03:42.989Z,1.00
2022-09-02T23:06:30.400Z,0.93
2022-09-02T23:09:05.707Z,1.07
2022-09-02T23:11:54.008Z,0.90
2022-09-02T23:14:41.141Z,0.80
2022-09-02T23:17:19.399Z,1.10
2022-09-02T23:20:08.662Z,0.73
2022-09-02T23:22:51.496Z,0.90
2022-09-02T23:25:30.289Z,0.97
2022-09-02T23:27:56.790Z,1.10
2022-09-02T23:30:30.548Z,0.90
2022-09-02T23:33:10.157Z,1.10
2022-09-02T23:35:48.109Z,0.80
2022-09-02T23:38:47.372Z,1.00
2022-09-02T23:41:15.391Z,1.00
2022-09-02T23:43:43.761Z,1.00
2022-09-02T23:46:20.151Z,1.00
2022-09-02T23:48:46.694Z,1.10
2022-09-02T23:51:29.699Z,0.90
2022-09-02T23:54:05.486Z,1.17
2022-09-02T23:56:50.803Z,0.80
2022-09-02T23:59:26.404Z,1.20
